Festivo — EAEQ — position and weather

sailwx.info

Track history (hours):
 
Tides and Currents Weather Stations Pressure Air Temp Water Temp Dewpoint Dewpoint Depression Visibility Wind Speed Wind Dir Waves Ship Positions

Festivo

Last reported at 2016-Dec-06 11:33 UTC. Time now 2016-Dec-06 12:12 UTC.
Position N 35°54' W 005°19'.

Length 136 m; draft 4.5 m.

Type: Cargo ship. MMSI: 225410000.

Date/timePositionNaut miles runAvg speedWind from/ knotsBaromVisibWave heightAir tempDewpointWater temp
2016-Dec-06 11:33N 35°54' W 005°19'0 0.0
2016-Dec-06 10:33N 35°54' W 005°19'0 0.0
2016-Dec-06 09:33N 35°54' W 005°19'0 0.0
2016-Dec-06 08:33N 35°54' W 005°19'0 0.0
2016-Dec-06 07:33N 35°54' W 005°19'0 0.0
2016-Dec-06 06:33N 35°54' W 005°19'1 0.5
2016-Dec-06 05:33N 35°54' W 005°19'  
2016-Dec-03 22:09N 35°55' W 005°13'4 7.5
2016-Dec-03 21:33N 35°54' W 005°19'1 0.6
2016-Dec-03 20:29N 35°54' W 005°19'0 0.0
2016-Dec-03 19:32N 35°54' W 005°19'0 0.0
2016-Dec-03 18:32N 35°54' W 005°19'0 0.0
2016-Dec-03 17:32N 35°54' W 005°19'0 0.0
2016-Dec-03 16:32N 35°54' W 005°19'0 0.0
2016-Dec-03 15:32N 35°54' W 005°19'0 0.0
2016-Dec-03 14:32N 35°54' W 005°19'0 0.0
2016-Dec-03 13:29N 35°54' W 005°19'0 0.0
2016-Dec-03 12:29N 35°54' W 005°19'0 0.0
2016-Dec-03 11:32N 35°54' W 005°19'0 0.0
2016-Dec-03 10:32N 35°54' W 005°19'0 0.0
2016-Dec-03 09:32N 35°54' W 005°19'0 0.0
2016-Dec-03 08:32N 35°54' W 005°19'0 0.0
2016-Dec-03 07:29N 35°54' W 005°19'0 0.0
2016-Dec-03 06:29N 35°54' W 005°19'1 0.8
2016-Dec-03 05:34N 35°54' W 005°19'  
2016-Nov-29 10:20N 35°57' W 005°15'5 6.1
2016-Nov-29 09:32N 35°54' W 005°19'0 0.0
2016-Nov-29 08:32N 35°54' W 005°19'0 0.0
2016-Nov-29 07:33N 35°54' W 005°19'0 0.0
2016-Nov-29 06:34N 35°54' W 005°19'0 0.3
2016-Nov-29 05:33N 35°54' W 005°19'  
2016-Nov-26 23:30N 35°54' W 005°11'7 6.9
2016-Nov-26 22:33N 35°54' W 005°19'0 0.0
2016-Nov-26 21:31N 35°54' W 005°19'0 0.0
2016-Nov-26 20:31N 35°54' W 005°19'0 0.0
2016-Nov-26 19:31N 35°54' W 005°19'0 0.0
2016-Nov-26 18:31N 35°54' W 005°19'0 0.1
2016-Nov-26 17:33N 35°54' W 005°19'6 6.2
2016-Nov-26 16:33N 35°59' W 005°14'  
Track history (hours):
 
Tides and Currents Weather Stations Pressure Air Temp Water Temp Dewpoint Dewpoint Depression Visibility Wind Speed Wind Dir Waves Ship Positions

Festivo

Last reported at 2016-Dec-06 11:33 UTC. Time now 2016-Dec-06 12:12 UTC.
Position N 35°54' W 005°19'.

Length 136 m; draft 4.5 m.

Type: Cargo ship. MMSI: 225410000.

Date/timePositionNaut miles runAvg speedWind from/ knotsBaromVisibWave heightAir tempDewpointWater temp
2016-Dec-06 11:33N 35°54' W 005°19'0 0.0
2016-Dec-06 10:33N 35°54' W 005°19'0 0.0
2016-Dec-06 09:33N 35°54' W 005°19'0 0.0
2016-Dec-06 08:33N 35°54' W 005°19'0 0.0
2016-Dec-06 07:33N 35°54' W 005°19'0 0.0
2016-Dec-06 06:33N 35°54' W 005°19'1 0.5
2016-Dec-06 05:33N 35°54' W 005°19'  
2016-Dec-03 22:09N 35°55' W 005°13'4 7.5
2016-Dec-03 21:33N 35°54' W 005°19'1 0.6
2016-Dec-03 20:29N 35°54' W 005°19'0 0.0
2016-Dec-03 19:32N 35°54' W 005°19'0 0.0
2016-Dec-03 18:32N 35°54' W 005°19'0 0.0
2016-Dec-03 17:32N 35°54' W 005°19'0 0.0
2016-Dec-03 16:32N 35°54' W 005°19'0 0.0
2016-Dec-03 15:32N 35°54' W 005°19'0 0.0
2016-Dec-03 14:32N 35°54' W 005°19'0 0.0
2016-Dec-03 13:29N 35°54' W 005°19'0 0.0
2016-Dec-03 12:29N 35°54' W 005°19'0 0.0
2016-Dec-03 11:32N 35°54' W 005°19'0 0.0
2016-Dec-03 10:32N 35°54' W 005°19'0 0.0
2016-Dec-03 09:32N 35°54' W 005°19'0 0.0
2016-Dec-03 08:32N 35°54' W 005°19'0 0.0
2016-Dec-03 07:29N 35°54' W 005°19'0 0.0
2016-Dec-03 06:29N 35°54' W 005°19'1 0.8
2016-Dec-03 05:34N 35°54' W 005°19'  
2016-Nov-29 10:20N 35°57' W 005°15'5 6.1
2016-Nov-29 09:32N 35°54' W 005°19'0 0.0
2016-Nov-29 08:32N 35°54' W 005°19'0 0.0
2016-Nov-29 07:33N 35°54' W 005°19'0 0.0
2016-Nov-29 06:34N 35°54' W 005°19'0 0.3
2016-Nov-29 05:33N 35°54' W 005°19'  
2016-Nov-26 23:30N 35°54' W 005°11'7 6.9
2016-Nov-26 22:33N 35°54' W 005°19'0 0.0
2016-Nov-26 21:31N 35°54' W 005°19'0 0.0
2016-Nov-26 20:31N 35°54' W 005°19'0 0.0
2016-Nov-26 19:31N 35°54' W 005°19'0 0.0
2016-Nov-26 18:31N 35°54' W 005°19'0 0.1
2016-Nov-26 17:33N 35°54' W 005°19'6 6.2
2016-Nov-26 16:33N 35°59' W 005°14'  

Dump ship's entire track history